Time;durP1;ratioP1;P1;durP2;ratioP2;P2;SDS_P1;SDS_P2;PMS_P1;PMS_P2;Temp;Humidity;BMP_temperature;BMP_pressure;BME280_temperature;BME280_humidity;BME280_pressure;Samples;Min_cycle;Max_cycle;Signal;HPM_P1;HPM_P2
2021/06/25 00:01:18;;;;;;;;;0.00;0.00;;;;;26.03;38.29;101385.63;5076713;28;56405;-66
2021/06/25 00:03:43;;;;;;;;;0.67;0.33;;;;;26.03;37.79;101382.03;5078457;28;45438;-65
2021/06/25 00:06:08;;;;;;;;;1.33;1.33;;;;;26.01;38.02;101373.03;5077058;28;45776;-65
2021/06/25 00:08:34;;;;;;;;;2.00;2.00;;;;;25.99;38.37;101372.19;5077586;27;52208;-65
2021/06/25 00:10:59;;;;;;;;;0.00;0.00;;;;;26.00;38.06;101374.00;5078133;27;45417;-65
2021/06/25 00:13:26;;;;;;;;;0.00;0.00;;;;;25.98;37.86;101363.13;5076802;28;54564;-65
2021/06/25 00:15:51;;;;;;;;;2.00;2.00;;;;;25.97;38.04;101369.53;5077256;27;70448;-65
2021/06/25 00:18:16;;;;;;;;;0.33;0.33;;;;;25.97;38.08;101369.53;5078303;27;48099;-65
2021/06/25 00:20:42;;;;;;;;;1.67;1.67;;;;;25.96;38.19;101367.78;5078656;27;45380;-65
2021/06/25 00:23:07;;;;;;;;;1.00;1.00;;;;;25.97;38.10;101369.53;5078451;27;45474;-65
2021/06/25 00:25:34;;;;;;;;;1.25;1.00;;;;;25.95;37.94;101365.97;5076986;28;46043;-65
2021/06/25 00:28:00;;;;;;;;;1.33;1.33;;;;;25.93;38.22;101367.88;5078592;27;45493;-65
2021/06/25 00:30:25;;;;;;;;;1.00;1.00;;;;;25.94;38.06;101366.94;5090310;27;44867;-65
2021/06/25 00:32:51;;;;;;;;;1.25;1.00;;;;;25.93;38.13;101360.63;5099234;27;45480;-65
2021/06/25 00:35:16;;;;;;;;;0.67;0.67;;;;;25.94;38.08;101369.66;5079557;27;65120;-65
2021/06/25 00:37:43;;;;;;;;;2.67;2.00;;;;;25.92;38.24;101355.22;5098354;27;49212;-65
2021/06/25 00:40:11;;;;;;;;;1.33;1.33;;;;;25.91;38.01;101351.56;5098744;27;45460;-66
2021/06/25 00:42:37;;;;;;;;;1.00;1.00;;;;;25.91;38.34;101342.53;5099117;27;45394;-65
2021/06/25 00:45:22;;;;;;;;;0.67;0.67;;;;;25.90;38.00;101348.94;5098143;27;46412;-65
2021/06/25 00:47:48;;;;;;;;;1.00;1.00;;;;;25.88;38.19;101348.97;5097612;27;45399;-65
2021/06/25 00:50:21;;;;;;;;;1.33;1.33;;;;;25.88;38.43;101353.53;5098134;27;45824;-65
2021/06/25 00:52:52;;;;;;;;;0.67;0.67;;;;;25.88;38.05;101357.13;5098322;27;45366;-66
2021/06/25 00:55:18;;;;;;;;;1.00;1.00;;;;;25.88;38.43;101348.97;5062480;27;46095;-66
2021/06/25 00:57:43;;;;;;;;;0.67;0.67;;;;;25.87;38.27;101351.72;5098151;27;45719;-66
2021/06/25 01:00:09;;;;;;;;;1.00;1.00;;;;;25.87;38.33;101347.16;5062145;27;45278;-66
2021/06/25 01:02:34;;;;;;;;;0.67;0.67;;;;;25.87;37.97;101343.56;5078960;27;45401;-66
2021/06/25 01:05:00;;;;;;;;;1.33;1.33;;;;;25.86;38.25;101344.53;5085364;27;45485;-66
2021/06/25 01:07:25;;;;;;;;;2.00;2.00;;;;;25.86;38.37;101333.63;5077370;28;45437;-66
2021/06/25 01:09:51;;;;;;;;;1.00;1.00;;;;;25.85;38.33;101326.38;5077207;28;45475;-66
2021/06/25 01:12:16;;;;;;;;;2.00;2.00;;;;;25.84;38.03;101330.97;5059261;28;45394;-66
2021/06/25 01:14:42;;;;;;;;;0.67;0.67;;;;;25.85;38.66;101326.38;5076695;28;68979;-66
2021/06/25 01:17:07;;;;;;;;;2.67;2.67;;;;;25.83;38.12;101322.84;5075294;28;57028;-66
2021/06/25 01:19:33;;;;;;;;;2.67;2.67;;;;;25.85;38.40;101331.84;5077267;28;45460;-66
2021/06/25 01:21:58;;;;;;;;;1.00;1.00;;;;;25.85;38.38;101326.38;5059155;28;45455;-66
2021/06/25 01:24:23;;;;;;;;;1.00;1.00;;;;;25.84;38.54;101321.91;5077022;28;46480;-66
2021/06/25 01:26:49;;;;;;;;;2.00;2.00;;;;;25.83;38.46;101314.66;5076786;28;45516;-66
2021/06/25 01:29:14;;;;;;;;;0.75;0.75;;;;;25.83;38.34;101317.38;5075020;28;55700;-65
2021/06/25 01:31:40;;;;;;;;;0.67;0.67;;;;;25.81;38.39;101314.72;5076811;28;45552;-66
2021/06/25 01:34:05;;;;;;;;;0.50;0.50;;;;;25.81;38.27;101313.84;5075118;28;50831;-67
2021/06/25 01:36:31;;;;;;;;;1.25;1.25;;;;;25.81;38.30;101313.84;5058482;28;45543;-65
2021/06/25 01:38:56;;;;;;;;;0.67;0.67;;;;;25.81;38.56;101302.94;5076954;28;45459;-65
2021/06/25 01:41:22;;;;;;;;;2.00;2.00;;;;;25.79;38.28;101310.28;5076456;28;45386;-65
2021/06/25 01:43:47;;;;;;;;;2.00;1.00;;;;;25.78;38.13;101308.53;5057636;28;56519;-65
2021/06/25 01:46:15;;;;;;;;;1.00;1.00;;;;;25.78;38.21;101303.97;5057555;28;57176;-65
2021/06/25 01:48:40;;;;;;;;;0.67;0.67;;;;;25.78;38.46;101305.81;5075213;28;45406;-65
2021/06/25 01:51:06;;;;;;;;;1.00;1.00;;;;;25.78;38.16;101297.63;5076415;28;46870;-65
2021/06/25 01:53:31;;;;;;;;;0.33;0.33;;;;;25.77;38.24;101290.38;5076103;28;51586;-65
2021/06/25 01:56:00;;;;;;;;;2.00;2.00;;;;;25.77;38.11;101293.13;5076620;28;45512;-65
2021/06/25 01:58:27;;;;;;;;;4.00;2.00;;;;;25.77;38.01;101287.66;5058530;28;45531;-65
2021/06/25 02:01:13;;;;;;;;;1.33;1.33;;;;;25.75;38.21;101287.72;5079492;27;45453;-65
2021/06/25 02:03:39;;;;;;;;;1.33;1.33;;;;;25.74;38.31;101285.97;5058226;28;45521;-65
2021/06/25 02:06:05;;;;;;;;;2.33;1.67;;;;;25.74;38.25;101286.84;5076649;28;45704;-65
2021/06/25 02:08:31;;;;;;;;;2.00;2.00;;;;;25.74;38.51;101285.97;5076592;28;45447;-65
2021/06/25 02:11:03;;;;;;;;;1.00;1.00;;;;;25.74;38.34;101281.38;5076098;28;45473;-65
2021/06/25 02:13:28;;;;;;;;;0.33;0.33;;;;;25.75;38.51;101276.81;5075970;28;45767;-65
2021/06/25 02:15:54;;;;;;;;;0.00;0.00;;;;;25.74;38.46;101275.94;5075327;28;67177;-65
2021/06/25 02:18:19;;;;;;;;;1.00;1.00;;;;;25.76;38.42;101273.16;5040632;28;49900;-66
2021/06/25 02:20:45;;;;;;;;;1.00;1.00;;;;;25.77;38.15;101274.03;5076089;28;45413;-65
2021/06/25 02:23:10;;;;;;;;;0.67;0.67;;;;;25.76;38.57;101275.88;5076177;28;46037;-65
2021/06/25 02:25:36;;;;;;;;;0.00;0.00;;;;;25.78;38.34;101275.84;5075888;28;44743;-66
2021/06/25 02:28:01;;;;;;;;;0.00;0.00;;;;;25.77;38.43;101274.03;5076246;28;45492;-65
2021/06/25 02:30:27;;;;;;;;;1.33;0.33;;;;;25.78;38.25;101267.66;5075093;28;45383;-65
2021/06/25 02:32:52;;;;;;;;;0.00;0.00;;;;;25.78;38.69;101262.22;5075410;28;45826;-65
2021/06/25 02:35:17;;;;;;;;;0.00;0.00;;;;;25.77;38.46;101260.41;5075691;28;45470;-66
2021/06/25 02:37:43;;;;;;;;;0.00;0.00;;;;;25.79;38.43;101250.34;5075386;28;62975;-66
2021/06/25 02:40:09;;;;;;;;;0.00;0.00;;;;;25.78;38.17;101254.91;5058083;28;45668;-65
2021/06/25 02:42:35;;;;;;;;;0.00;0.00;;;;;25.79;38.55;101255.78;5075831;28;46273;-65
2021/06/25 02:45:01;;;;;;;;;0.00;0.00;;;;;25.79;38.36;101253.06;5057735;28;45456;-65
2021/06/25 02:47:26;;;;;;;;;0.00;0.00;;;;;25.77;38.70;101250.41;5076295;28;45547;-65
2021/06/25 02:49:51;;;;;;;;;0.00;0.00;;;;;25.79;38.50;101242.16;5075932;28;45496;-65
2021/06/25 02:52:17;;;;;;;;;0.50;0.50;;;;;25.79;38.31;101239.44;5075411;28;56176;-65
2021/06/25 02:54:42;;;;;;;;;0.00;0.00;;;;;25.79;38.63;101239.44;5076001;28;45475;-65
2021/06/25 02:57:08;;;;;;;;;0.00;0.00;;;;;25.78;38.78;101246.75;5076493;28;45413;-66
2021/06/25 02:59:34;;;;;;;;;0.67;0.67;;;;;25.78;38.41;101241.28;5075966;27;45746;-66
2021/06/25 03:01:59;;;;;;;;;0.00;0.00;;;;;25.78;38.34;101248.59;5096117;27;45590;-66
2021/06/25 03:04:25;;;;;;;;;0.00;0.00;;;;;25.79;38.50;101253.06;5095734;27;45424;-66
2021/06/25 03:06:50;;;;;;;;;0.00;0.00;;;;;25.78;38.48;101248.59;5096075;27;44858;-66
2021/06/25 03:09:15;;;;;;;;;0.00;0.00;;;;;25.77;38.63;101242.22;5096330;27;45463;-66
2021/06/25 03:11:41;;;;;;;;;0.00;0.00;;;;;25.77;38.50;101242.22;5095119;27;56343;-66
2021/06/25 03:14:06;;;;;;;;;0.00;0.00;;;;;25.75;38.49;101245.03;5095226;27;56809;-66
2021/06/25 03:16:32;;;;;;;;;1.00;1.00;;;;;25.75;38.25;101239.59;5095036;27;55910;-66
2021/06/25 03:18:57;;;;;;;;;0.00;0.00;;;;;25.75;38.64;101239.59;5096105;27;45419;-66
2021/06/25 03:21:29;;;;;;;;;0.00;0.00;;;;;25.75;38.53;101234.13;5096118;27;45381;-66
2021/06/25 03:23:54;;;;;;;;;0.00;0.00;;;;;25.75;38.30;101236.88;5077481;27;45405;-66
2021/06/25 03:26:19;;;;;;;;;0.00;0.00;;;;;25.76;38.57;101229.56;5095859;27;46869;-66
2021/06/25 03:28:45;;;;;;;;;0.00;0.00;;;;;25.77;38.50;101238.63;5096351;27;45352;-66
2021/06/25 03:31:10;;;;;;;;;0.33;0.33;;;;;25.75;38.49;101242.31;5094144;27;47151;-66
2021/06/25 03:33:36;;;;;;;;;0.00;0.00;;;;;25.76;38.44;101240.47;5095019;27;57927;-66
2021/06/25 03:36:01;;;;;;;;;0.00;0.00;;;;;25.75;38.47;101245.03;5095859;27;45352;-66
2021/06/25 03:38:30;;;;;;;;;0.00;0.00;;;;;25.77;38.18;101241.34;5077122;27;45461;-66
2021/06/25 03:40:55;;;;;;;;;1.00;1.00;;;;;25.75;38.77;101249.56;5095353;27;45458;-66
2021/06/25 03:43:21;;;;;;;;;0.00;0.00;;;;;25.75;38.72;101245.03;5095041;27;45539;-66
2021/06/25 03:45:46;;;;;;;;;0.00;0.00;;;;;25.74;38.80;101237.81;5095318;27;45474;-66
2021/06/25 03:48:12;;;;;;;;;0.00;0.00;;;;;25.74;38.63;101240.53;5095952;27;45452;-66
2021/06/25 03:50:37;;;;;;;;;0.00;0.00;;;;;25.73;38.25;101241.50;5076093;27;61054;-66
2021/06/25 03:53:03;;;;;;;;;0.00;0.00;;;;;25.74;38.57;101237.81;5076717;27;45780;-66
2021/06/25 03:55:28;;;;;;;;;0.00;0.00;;;;;25.74;38.45;101235.06;5076495;27;45468;-66
2021/06/25 03:57:54;;;;;;;;;0.00;0.00;;;;;25.74;38.72;101243.25;5076971;27;45433;-66
2021/06/25 04:00:19;;;;;;;;;0.00;0.00;;;;;25.75;38.38;101239.59;5091740;27;49360;-66
2021/06/25 04:02:46;;;;;;;;;0.00;0.00;;;;;25.77;38.65;101238.63;5095015;27;45438;-66
2021/06/25 04:05:12;;;;;;;;;0.00;0.00;;;;;25.75;38.92;101234.13;5076769;27;45455;-65
2021/06/25 04:07:37;;;;;;;;;0.00;0.00;;;;;25.75;38.72;101234.13;5095280;27;45504;-65
2021/06/25 04:10:05;;;;;;;;;0.00;0.00;;;;;25.75;39.09;101231.41;5076754;27;46124;-65
2021/06/25 04:12:31;;;;;;;;;0.00;0.00;;;;;25.75;38.56;101231.41;5095076;27;45564;-65
2021/06/25 04:14:56;;;;;;;;;0.00;0.00;;;;;25.75;38.73;101231.41;5095243;27;45459;-65
2021/06/25 04:17:22;;;;;;;;;1.00;1.00;;;;;25.77;38.51;101230.44;5076322;27;48152;-65
2021/06/25 04:19:47;;;;;;;;;0.00;0.00;;;;;25.75;38.71;101223.25;5093962;27;67756;-65
2021/06/25 04:22:12;;;;;;;;;0.00;0.00;;;;;25.77;38.65;101225.00;5094847;27;58512;-65
2021/06/25 04:24:38;;;;;;;;;0.00;0.00;;;;;25.74;38.60;101223.31;5095079;27;45591;-65
2021/06/25 04:27:04;;;;;;;;;0.00;0.00;;;;;25.74;38.78;101224.19;5094893;27;45496;-65
2021/06/25 04:29:31;;;;;;;;;0.00;0.00;;;;;25.74;38.51;101226.91;5093555;27;45913;-65
2021/06/25 04:31:56;;;;;;;;;0.00;0.00;;;;;25.77;38.86;101225.00;5095344;27;45429;-65
2021/06/25 04:34:22;;;;;;;;;1.50;0.00;;;;;25.78;38.71;101234.97;5095292;27;45859;-65
2021/06/25 04:36:47;;;;;;;;;0.00;0.00;;;;;25.78;38.47;101230.38;5096722;27;45388;-66
2021/06/25 04:39:14;;;;;;;;;0.00;0.00;;;;;25.76;38.78;101232.28;5080418;27;45614;-66
2021/06/25 04:41:39;;;;;;;;;0.00;0.00;;;;;25.78;38.57;101229.50;5098138;27;45550;-66
2021/06/25 04:44:05;;;;;;;;;0.00;0.00;;;;;25.78;38.55;101234.97;5098109;27;45389;-65
2021/06/25 04:46:32;;;;;;;;;0.00;0.00;;;;;25.77;38.58;101236.78;5098279;27;45380;-65
2021/06/25 04:48:57;;;;;;;;;0.00;0.00;;;;;25.78;38.49;101240.41;5062592;27;46267;-65
2021/06/25 04:51:22;;;;;;;;;0.00;0.00;;;;;25.77;38.35;101236.78;5098110;27;45435;-65
2021/06/25 04:53:48;;;;;;;;;0.00;0.00;;;;;25.77;38.92;101230.44;5097540;27;55851;-65
2021/06/25 04:56:14;;;;;;;;;0.00;0.00;;;;;25.77;38.65;101233.16;5079829;27;45623;-65
2021/06/25 04:58:39;;;;;;;;;0.00;0.00;;;;;25.77;38.65;101236.78;5097766;27;53117;-66
2021/06/25 05:01:04;;;;;;;;;0.00;0.00;;;;;25.75;38.59;101228.69;5097445;27;65321;-65
2021/06/25 05:03:30;;;;;;;;;0.00;0.00;;;;;25.77;38.80;101225.00;5098036;27;45439;-65
2021/06/25 05:05:56;;;;;;;;;0.00;0.00;;;;;25.77;38.45;101230.44;5097949;27;45463;-65
2021/06/25 05:08:21;;;;;;;;;0.00;0.00;;;;;25.70;38.96;101217.09;5079785;27;45980;-65
2021/06/25 05:10:47;;;;;;;;;0.00;0.00;;;;;25.77;38.98;101231.31;5097648;27;45426;-65
2021/06/25 05:13:13;;;;;;;;;0.00;0.00;;;;;25.76;38.70;101224.13;5079310;27;45427;-65
2021/06/25 05:15:40;;;;;;;;;0.00;0.00;;;;;25.76;38.96;101229.56;5098398;27;45652;-65
2021/06/25 05:18:12;;;;;;;;;0.00;0.00;;;;;25.73;38.60;101219.69;5097719;27;46158;-65
2021/06/25 05:20:38;;;;;;;;;0.00;0.00;;;;;25.75;38.91;101231.41;5079454;27;45342;-65
2021/06/25 05:23:03;;;;;;;;;0.00;0.00;;;;;25.77;38.82;101230.44;5079650;27;45420;-65
2021/06/25 05:25:29;;;;;;;;;0.00;0.00;;;;;25.74;38.76;101232.34;5097584;27;52211;-65
2021/06/25 05:27:54;;;;;;;;;0.00;0.00;;;;;25.76;38.88;101237.75;5097171;27;45507;-65
2021/06/25 05:30:20;;;;;;;;;0.00;0.00;;;;;25.76;38.59;101235.03;5095772;27;63431;-65
2021/06/25 05:32:45;;;;;;;;;0.00;0.00;;;;;25.77;38.72;101246.78;5079088;27;44879;-65
2021/06/25 05:35:11;;;;;;;;;0.00;0.00;;;;;25.77;38.84;101235.91;5097460;27;45408;-65
2021/06/25 05:37:36;;;;;;;;;0.00;0.00;;;;;25.76;38.91;101229.56;5078974;27;45575;-65
2021/06/25 05:40:02;;;;;;;;;0.00;0.00;;;;;25.75;39.09;101234.13;5078351;27;66017;-65
2021/06/25 05:42:27;;;;;;;;;0.00;0.00;;;;;25.76;39.09;101232.28;5097281;27;45522;-65
2021/06/25 05:44:53;;;;;;;;;0.00;0.00;;;;;25.75;39.02;101236.88;5097610;27;45452;-65
2021/06/25 05:47:18;;;;;;;;;0.00;0.00;;;;;25.75;38.94;101231.41;5096646;27;62837;-66
2021/06/25 05:49:44;;;;;;;;;0.00;0.00;;;;;25.74;38.80;101226.91;5096787;27;53252;-65
2021/06/25 05:52:10;;;;;;;;;0.00;0.00;;;;;25.77;38.65;101234.06;5076225;27;45401;-66
2021/06/25 05:54:36;;;;;;;;;0.00;0.00;;;;;25.77;38.82;101233.16;5058582;28;51130;-66
2021/06/25 05:57:01;;;;;;;;;0.00;0.00;;;;;25.75;38.75;101234.13;5058138;28;58791;-65
2021/06/25 05:59:26;;;;;;;;;0.00;0.00;;;;;25.75;39.01;101239.59;5076703;28;45346;-65
2021/06/25 06:01:52;;;;;;;;;0.00;0.00;;;;;25.77;38.50;101235.91;5096086;27;47783;-65
2021/06/25 06:04:17;;;;;;;;;0.00;0.00;;;;;25.75;38.65;101239.59;5097028;27;51843;-65
2021/06/25 06:06:43;;;;;;;;;0.00;0.00;;;;;25.75;38.65;101245.03;5096926;27;50016;-66
2021/06/25 06:09:08;;;;;;;;;6.33;5.33;;;;;25.74;38.65;101234.19;5078734;27;46174;-71
2021/06/25 06:11:33;;;;;;;;;12.00;11.67;;;;;25.61;37.63;101231.09;5078499;27;45375;-71
2021/06/25 06:13:59;;;;;;;;;15.67;15.67;;;;;25.54;37.23;101237.72;5097331;27;45841;-70
2021/06/25 06:16:25;;;;;;;;;18.00;16.00;;;;;25.39;36.58;101238.34;5078260;27;45786;-71
2021/06/25 06:18:50;;;;;;;;;21.67;20.67;;;;;25.25;36.28;101239.78;5078041;27;45778;-70
2021/06/25 06:21:20;;;;;;;;;20.67;20.33;;;;;25.11;35.94;101239.41;5091942;27;45406;-70
2021/06/25 06:32:06;;;;;;;;;20.33;19.67;;;;;24.54;36.44;101228.81;5054344;28;45673;-70
2021/06/25 06:34:35;;;;;;;;;22.33;21.00;;;;;24.44;36.26;101226.44;5056195;28;44870;-70
2021/06/25 06:37:01;;;;;;;;;19.33;19.33;;;;;24.34;36.45;101225.91;5055227;28;45432;-71
2021/06/25 06:39:28;;;;;;;;;20.33;20.33;;;;;24.28;36.79;101228.81;5053220;28;60258;-71
2021/06/25 06:41:54;;;;;;;;;24.00;21.33;;;;;24.20;36.66;101225.47;5054285;28;45760;-70
2021/06/25 06:44:19;;;;;;;;;19.67;18.67;;;;;24.14;37.23;101227.47;5055581;28;45484;-70
2021/06/25 06:46:45;;;;;;;;;20.33;18.67;;;;;24.10;36.88;101231.25;5055211;28;46300;-71
2021/06/25 06:49:12;;;;;;;;;20.00;19.33;;;;;24.07;37.10;101234.06;5056128;28;45408;-70
2021/06/25 06:51:39;;;;;;;;;22.67;19.33;;;;;24.01;37.36;101236.97;5056266;28;45433;-71
2021/06/25 06:54:05;;;;;;;;;19.33;19.33;;;;;23.98;37.60;101231.66;5044392;28;45406;-70
2021/06/25 06:56:30;;;;;;;;;18.00;17.67;;;;;23.96;38.17;101241.69;5076396;28;45476;-71
2021/06/25 06:58:56;;;;;;;;;21.00;20.00;;;;;23.93;38.11;101229.09;5041922;28;45471;-70
2021/06/25 07:01:22;;;;;;;;;19.67;18.00;;;;;23.96;37.93;101245.28;5060629;28;45477;-69
2021/06/25 07:03:48;;;;;;;;;19.00;18.67;;;;;23.96;38.02;101250.72;5060634;28;45441;-71
2021/06/25 07:06:13;;;;;;;;;19.00;17.33;;;;;23.93;37.67;101239.06;5070443;28;48388;-70
2021/06/25 07:08:39;;;;;;;;;16.33;16.33;;;;;23.91;37.39;101238.22;5054199;28;45679;-70
2021/06/25 07:11:04;;;;;;;;;21.33;20.00;;;;;23.83;37.37;101229.44;5055830;28;45486;-70
2021/06/25 07:13:30;;;;;;;;;18.33;18.33;;;;;23.81;37.46;101231.34;5056725;28;45549;-70
2021/06/25 07:15:55;;;;;;;;;19.33;19.33;;;;;23.74;37.98;101228.78;5056825;28;45439;-71
2021/06/25 07:18:21;;;;;;;;;18.00;17.67;;;;;23.74;38.02;101231.50;5058672;28;45544;-71
2021/06/25 07:20:47;;;;;;;;;19.33;19.33;;;;;23.71;37.97;101218.03;5057304;28;45504;-71
2021/06/25 07:23:13;;;;;;;;;18.67;16.67;;;;;23.69;38.00;101219.91;5056465;28;45463;-68
2021/06/25 07:25:38;;;;;;;;;17.00;17.00;;;;;23.70;38.46;101226.22;5066861;28;46160;-71
2021/06/25 07:28:04;;;;;;;;;19.00;19.00;;;;;23.69;38.40;101225.34;5081224;27;45261;-70
2021/06/25 07:30:30;;;;;;;;;21.00;19.33;;;;;23.70;38.71;101216.25;5073817;28;45492;-71
2021/06/25 07:33:06;;;;;;;;;20.00;17.33;;;;;23.74;38.65;101220.63;5077914;28;45440;-71
2021/06/25 07:35:33;;;;;;;;;17.33;17.33;;;;;23.77;38.44;101211.53;5076611;28;54799;-71
2021/06/25 07:37:58;;;;;;;;;17.33;16.33;;;;;23.79;38.40;101216.91;5074665;28;45476;-70
2021/06/25 07:40:23;;;;;;;;;15.33;15.33;;;;;23.80;38.16;101210.56;5076879;28;45543;-69
2021/06/25 07:42:49;;;;;;;;;37.00;33.33;;;;;23.83;38.79;101207.72;5073950;28;51034;-69
2021/06/25 07:45:15;;;;;;;;;17.67;15.00;;;;;23.83;38.50;101207.72;5055539;28;46070;-69
2021/06/25 07:47:42;;;;;;;;;20.00;18.33;;;;;23.85;38.50;101211.28;5056300;28;45522;-70
2021/06/25 07:50:10;;;;;;;;;21.00;18.67;;;;;23.85;38.65;101208.56;5037139;28;45474;-70
2021/06/25 07:52:35;;;;;;;;;16.00;13.00;;;;;23.87;38.42;101212.13;5054588;28;45512;-70
2021/06/25 07:55:12;;;;;;;;;18.67;17.33;;;;;23.88;38.75;101213.91;5067919;28;48050;-71
2021/06/25 07:57:37;;;;;;;;;15.00;15.00;;;;;23.88;38.71;101203.03;5081631;28;45306;-70
2021/06/25 08:00:08;;;;;;;;;17.67;17.67;;;;;23.91;38.43;101192.06;5074067;28;45436;-70
2021/06/25 08:02:40;;;;;;;;;15.00;15.00;;;;;23.93;38.32;101204.63;5072696;28;45467;-70
2021/06/25 08:05:14;;;;;;;;;18.00;17.00;;;;;23.94;38.76;101197.41;5074622;28;45570;-71
2021/06/25 08:07:40;;;;;;;;;22.33;20.00;;;;;23.97;38.77;101197.28;5073241;28;45441;-69
2021/06/25 08:10:06;;;;;;;;;21.00;18.00;;;;;24.01;38.37;101188.06;5074791;27;45381;-71
2021/06/25 08:12:33;;;;;;;;;18.00;16.00;;;;;24.05;38.60;101180.72;5070875;27;45529;-71
2021/06/25 08:14:59;;;;;;;;;17.00;16.00;;;;;24.06;38.17;101186.09;5078148;27;46934;-71
2021/06/25 08:17:25;;;;;;;;;19.33;16.67;;;;;24.10;38.54;101186.88;5079491;28;45508;-71
2021/06/25 08:19:51;;;;;;;;;17.33;17.33;;;;;24.11;38.13;101184.09;5078287;27;45483;-74
2021/06/25 08:22:16;;;;;;;;;19.00;19.00;;;;;24.14;38.29;101180.41;5077492;28;45367;-73
2021/06/25 08:24:43;;;;;;;;;20.00;17.00;;;;;24.20;38.28;101179.28;5077544;28;59880;-71
2021/06/25 08:27:32;;;;;;;;;17.00;15.00;;;;;24.21;37.80;101178.34;5078234;27;60628;-70
2021/06/25 08:29:57;;;;;;;;;16.00;15.67;;;;;24.21;38.33;101173.78;5078671;27;44844;-72
2021/06/25 08:32:23;;;;;;;;;14.33;14.00;;;;;24.28;37.85;101185.31;5098968;27;45460;-70
2021/06/25 08:34:48;;;;;;;;;20.67;19.00;;;;;24.29;37.61;101176.22;5062515;27;46337;-69
2021/06/25 08:37:13;;;;;;;;;22.00;16.67;;;;;24.30;37.69;101175.31;5076020;28;55187;-70
2021/06/25 08:39:39;;;;;;;;;18.33;17.00;;;;;24.31;38.14;101174.34;5060523;28;45566;-70
2021/06/25 08:42:06;;;;;;;;;17.67;17.33;;;;;24.30;37.89;101168.03;5078451;28;45396;-72
2021/06/25 08:44:35;;;;;;;;;17.67;15.67;;;;;24.33;37.53;101161.59;5042775;28;45510;-68
2021/06/25 08:47:01;;;;;;;;;18.00;17.00;;;;;24.34;38.24;101163.38;5077873;27;44829;-68
2021/06/25 08:49:31;;;;;;;;;16.00;16.00;;;;;24.37;38.03;101171.41;5097744;27;45488;-68
2021/06/25 08:51:56;;;;;;;;;16.33;16.33;;;;;24.36;38.11;101167.81;5078003;27;45331;-68
2021/06/25 08:54:22;;;;;;;;;20.00;17.67;;;;;24.40;37.82;101155.00;5076984;27;45411;-67
2021/06/25 08:56:50;;;;;;;;;17.33;16.33;;;;;24.44;38.11;101162.09;5079203;27;45442;-71
2021/06/25 08:59:25;;;;;;;;;15.00;15.00;;;;;24.47;38.33;101151.09;5084848;27;45551;-68
2021/06/25 09:01:51;;;;;;;;;15.00;14.33;;;;;24.49;38.40;101149.19;5076079;28;54416;-68
2021/06/25 09:04:36;;;;;;;;;16.00;16.00;;;;;24.54;38.00;101154.47;5076237;28;45476;-68
2021/06/25 09:07:03;;;;;;;;;13.00;13.00;;;;;24.59;38.17;101154.34;5076692;28;45550;-67
2021/06/25 09:09:48;;;;;;;;;12.00;11.33;;;;;24.63;37.87;101156.88;5041657;28;45501;-66
2021/06/25 09:12:27;;;;;;;;;12.67;12.67;;;;;24.66;38.26;101142.25;5082605;27;45521;-68
2021/06/25 09:15:13;;;;;;;;;10.33;10.33;;;;;24.69;38.20;101142.16;5077233;28;45469;-68
2021/06/25 09:18:01;;;;;;;;;15.67;15.00;;;;;24.73;37.98;101144.69;5058893;28;45476;-68
2021/06/25 09:20:37;;;;;;;;;13.00;12.33;;;;;24.77;38.05;101150.91;5077352;28;45408;-68
2021/06/25 09:23:10;;;;;;;;;11.33;9.33;;;;;24.82;38.48;101140.72;5059672;28;45508;-67
2021/06/25 09:25:50;;;;;;;;;13.00;11.33;;;;;24.87;38.81;101141.44;5075710;28;46208;-68
2021/06/25 09:28:21;;;;;;;;;12.33;12.00;;;;;24.93;37.93;101129.44;5076927;27;45381;-66
2021/06/25 09:30:47;;;;;;;;;11.67;11.67;;;;;24.94;38.18;101126.66;5080875;27;45483;-68
2021/06/25 09:33:12;;;;;;;;;11.00;11.00;;;;;25.01;38.58;101124.56;5061363;27;45534;-67
2021/06/25 09:35:38;;;;;;;;;11.00;11.00;;;;;25.03;38.47;101119.97;5096338;27;45891;-67
2021/06/25 09:38:03;;;;;;;;;13.00;11.33;;;;;25.07;37.96;101123.44;5096951;27;45563;-66
2021/06/25 09:40:34;;;;;;;;;11.00;11.00;;;;;25.11;38.30;101122.38;5078329;27;46236;-67
2021/06/25 09:43:13;;;;;;;;;11.00;11.00;;;;;25.11;38.17;101119.66;5078774;27;45964;-69
2021/06/25 09:45:48;;;;;;;;;8.33;7.33;;;;;25.14;37.84;101116.78;5060999;27;45556;-69
2021/06/25 09:48:16;;;;;;;;;7.00;7.00;;;;;25.17;37.90;101113.97;5082403;27;45457;-67
2021/06/25 09:50:43;;;;;;;;;6.67;6.67;;;;;25.20;38.03;101121.09;5041806;28;45414;-68
2021/06/25 09:53:08;;;;;;;;;5.67;5.67;;;;;25.23;38.22;101119.19;5078223;28;45362;-68
2021/06/25 09:55:49;;;;;;;;;7.00;6.00;;;;;25.27;38.27;101118.09;5040501;28;45761;-68
2021/06/25 10:01:24;;;;;;;;;6.33;6.33;;;;;25.31;38.39;101133.38;5077060;27;45491;-67
2021/06/25 10:03:56;;;;;;;;;7.00;7.00;;;;;25.33;38.14;101125.16;5076292;27;45861;-67
2021/06/25 10:06:23;;;;;;;;;7.33;7.33;;;;;25.38;38.09;101130.38;5040395;28;47591;-68
2021/06/25 10:08:49;;;;;;;;;6.00;6.00;;;;;25.40;38.08;101128.50;5056996;28;45506;-67
2021/06/25 10:11:16;;;;;;;;;5.33;5.33;;;;;25.42;37.79;101126.59;5075559;28;45484;-67
2021/06/25 10:13:45;;;;;;;;;5.00;5.00;;;;;25.44;38.11;101127.41;5075224;28;45444;-68
2021/06/25 10:16:10;;;;;;;;;7.33;6.33;;;;;25.46;38.17;101128.22;5075576;28;46370;-68
2021/06/25 10:18:44;;;;;;;;;106.25;97.25;;;;;25.48;38.15;101118.16;5023588;28;45331;-68
2021/06/25 10:21:14;;;;;;;;;7.00;7.00;;;;;25.52;37.72;101127.97;5075844;28;45459;-68
2021/06/25 10:23:40;;;;;;;;;5.00;4.00;;;;;25.53;38.34;101118.84;5075844;28;45690;-68
2021/06/25 10:26:08;;;;;;;;;8.67;6.00;;;;;25.54;38.38;101121.50;5075946;28;45440;-68
2021/06/25 10:28:39;;;;;;;;;7.67;6.67;;;;;25.56;38.20;101113.28;5041281;28;45481;-68
2021/06/25 10:31:05;;;;;;;;;9.00;9.00;;;;;25.58;37.97;101105.03;5074363;28;46518;-68
2021/06/25 10:33:30;;;;;;;;;14.00;13.33;;;;;25.52;38.07;101107.06;5056972;28;45557;-68
2021/06/25 10:35:56;;;;;;;;;17.00;15.33;;;;;25.51;38.24;101107.13;5058439;27;46695;-69
2021/06/25 10:38:26;;;;;;;;;13.00;11.67;;;;;25.45;38.15;101113.72;5043825;27;45775;-67
2021/06/25 10:40:59;;;;;;;;;17.67;17.67;;;;;25.34;38.16;101108.72;5095605;27;45337;-68
2021/06/25 10:43:49;;;;;;;;;15.33;13.67;;;;;25.27;38.84;101100.88;5077569;27;45694;-67
2021/06/25 10:46:32;;;;;;;;;14.00;14.00;;;;;25.32;38.99;101113.34;5095032;27;46193;-67
2021/06/25 10:48:58;;;;;;;;;34.33;31.33;;;;;25.33;38.78;101112.41;5039656;28;45487;-68
2021/06/25 10:51:25;;;;;;;;;25.67;25.33;;;;;25.24;38.99;101104.59;5074504;28;45813;-67
2021/06/25 10:54:08;;;;;;;;;33.00;29.67;;;;;25.20;39.75;101111.09;5075145;27;45454;-67
2021/06/25 10:56:34;;;;;;;;;17.67;16.67;;;;;25.14;39.33;101111.34;5074570;28;46037;-66
2021/06/25 10:59:28;;;;;;;;;16.00;13.33;;;;;25.13;40.10;101106.88;5055840;28;55971;-67
2021/06/25 11:02:02;;;;;;;;;16.00;14.33;;;;;25.12;40.24;101107.81;5056729;28;45411;-70
2021/06/25 11:04:30;;;;;;;;;13.33;13.00;;;;;25.09;40.66;101107.94;5077099;28;45549;-65
2021/06/25 11:06:56;;;;;;;;;11.67;11.67;;;;;25.07;41.23;101105.28;5077145;28;45966;-67
2021/06/25 11:09:22;;;;;;;;;14.33;14.33;;;;;25.14;41.34;101111.34;5077332;28;45523;-68
2021/06/25 11:11:47;;;;;;;;;13.33;13.00;;;;;25.26;41.52;101115.44;5059172;28;45455;-65
2021/06/25 11:14:27;;;;;;;;;13.67;13.67;;;;;25.33;42.00;101115.13;5077238;28;45530;-67
2021/06/25 11:16:52;;;;;;;;;16.00;15.00;;;;;25.44;42.31;101119.25;5056460;28;45389;-67
2021/06/25 11:19:37;;;;;;;;;12.67;12.67;;;;;25.54;42.05;101126.94;5073319;28;45334;-67
2021/06/25 11:22:04;;;;;;;;;10.00;9.00;;;;;25.60;41.93;101114.91;5053711;28;45410;-66
2021/06/25 11:24:54;;;;;;;;;8.33;8.33;;;;;25.66;41.87;101120.09;5053703;28;45475;-67
2021/06/25 11:27:19;;;;;;;;;7.00;6.33;;;;;25.71;41.87;101112.63;5072767;27;45579;-66
2021/06/25 11:29:45;;;;;;;;;9.00;9.00;;;;;25.74;41.78;101111.59;5053866;28;45769;-66
2021/06/25 11:32:12;;;;;;;;;8.33;7.67;;;;;25.75;42.14;101113.34;5069576;28;45403;-66